createdAt,value
2019-02-28T00:05:20.253Z,29.27
2019-02-28T00:08:05.282Z,32.10
2019-02-28T00:10:49.157Z,31.97
2019-02-28T00:13:34.028Z,33.20
2019-02-28T00:16:20.628Z,32.25
2019-02-28T00:19:04.381Z,35.23
2019-02-28T00:21:48.944Z,34.27
2019-02-28T00:24:33.171Z,35.27
2019-02-28T00:27:20.957Z,35.63
2019-02-28T00:30:05.959Z,35.52
2019-02-28T00:32:51.126Z,35.73
2019-02-28T00:35:35.343Z,34.93
2019-02-28T00:38:19.147Z,34.73
2019-02-28T00:41:03.020Z,34.97
2019-02-28T00:46:51.321Z,33.57
2019-02-28T00:49:35.956Z,32.80
2019-02-28T00:52:19.711Z,31.97
2019-02-28T00:55:04.284Z,34.33
2019-02-28T00:57:49.231Z,34.20
2019-02-28T01:00:37.206Z,34.00
2019-02-28T01:03:19.319Z,36.50
2019-02-28T01:06:04.044Z,34.83
2019-02-28T01:08:48.220Z,35.37
2019-02-28T01:11:32.807Z,38.05
2019-02-28T01:14:16.617Z,36.13
2019-02-28T01:17:01.687Z,35.27
2019-02-28T01:19:47.258Z,36.83
2019-02-28T01:22:31.776Z,36.10
2019-02-28T01:25:17.572Z,36.93
2019-02-28T01:28:02.007Z,37.93
2019-02-28T01:30:46.679Z,37.00
2019-02-28T01:33:30.877Z,36.43
2019-02-28T01:36:15.653Z,37.57
2019-02-28T01:39:03.816Z,37.70
2019-02-28T01:42:01.059Z,38.07
2019-02-28T01:44:45.349Z,37.13
2019-02-28T01:47:29.612Z,39.23
2019-02-28T01:50:16.345Z,37.90
2019-02-28T01:53:00.952Z,38.80
2019-02-28T01:55:44.818Z,39.50
2019-02-28T01:58:29.310Z,37.50
2019-02-28T02:01:13.908Z,38.60
2019-02-28T02:03:58.428Z,38.80
2019-02-28T02:06:42.366Z,38.20
2019-02-28T02:09:28.145Z,38.83
2019-02-28T02:12:13.563Z,40.37
2019-02-28T02:14:58.184Z,38.05
2019-02-28T02:17:42.897Z,38.33
2019-02-28T02:20:27.499Z,38.98
2019-02-28T02:23:11.439Z,39.30
2019-02-28T02:25:57.592Z,40.77
2019-02-28T02:28:41.910Z,40.90
2019-02-28T02:31:28.927Z,40.47
2019-02-28T02:34:11.890Z,40.93
2019-02-28T02:36:44.280Z,41.68
2019-02-28T02:39:28.477Z,40.53
2019-02-28T02:42:13.339Z,40.07
2019-02-28T02:44:57.254Z,40.65
2019-02-28T02:47:45.975Z,42.87
2019-02-28T02:50:35.733Z,41.93
2019-02-28T02:53:19.013Z,40.20
2019-02-28T02:56:04.924Z,42.88
2019-02-28T02:58:48.877Z,41.57
2019-02-28T03:01:35.312Z,41.37
2019-02-28T03:04:22.878Z,41.90
2019-02-28T03:07:07.204Z,42.48
2019-02-28T03:09:51.580Z,40.80
2019-02-28T03:12:38.303Z,39.93
2019-02-28T03:15:26.878Z,43.63
2019-02-28T03:18:09.002Z,41.30
2019-02-28T03:20:53.921Z,41.43
2019-02-28T03:23:40.143Z,41.73
2019-02-28T03:26:23.356Z,42.50
2019-02-28T03:29:08.940Z,41.13
2019-02-28T03:31:56.433Z,43.47
2019-02-28T03:34:39.269Z,42.30
2019-02-28T03:37:32.843Z,44.67
2019-02-28T03:40:25.286Z,44.07
2019-02-28T03:43:09.504Z,43.77
2019-02-28T03:45:54.424Z,42.63
2019-02-28T03:48:38.434Z,43.30
2019-02-28T03:51:22.264Z,43.97
2019-02-28T03:54:07.185Z,42.57
2019-02-28T03:56:53.335Z,43.07
2019-02-28T03:59:37.539Z,45.23
2019-02-28T04:02:22.534Z,44.73
2019-02-28T04:05:06.720Z,43.60
2019-02-28T04:07:53.520Z,46.27
2019-02-28T04:10:36.566Z,44.57
2019-02-28T04:13:26.585Z,44.42
2019-02-28T04:16:10.817Z,43.90
2019-02-28T04:18:54.744Z,45.37
2019-02-28T04:21:38.881Z,44.43
2019-02-28T04:24:22.644Z,44.37
2019-02-28T04:27:07.926Z,45.35
2019-02-28T04:29:51.777Z,44.03
2019-02-28T04:32:36.803Z,45.20
2019-02-28T04:35:25.279Z,45.63
2019-02-28T04:38:06.995Z,45.33
2019-02-28T04:40:51.774Z,45.48
2019-02-28T04:43:35.611Z,46.60
2019-02-28T04:46:19.526Z,46.95
2019-02-28T04:49:03.936Z,47.03
2019-02-28T04:51:47.864Z,44.90
2019-02-28T04:54:31.388Z,45.97
2019-02-28T04:57:17.301Z,46.03
2019-02-28T05:00:00.881Z,46.07
2019-02-28T05:02:33.153Z,45.63
2019-02-28T05:05:17.245Z,47.05
2019-02-28T05:08:05.562Z,47.17
2019-02-28T05:10:49.304Z,44.83
2019-02-28T05:13:34.164Z,46.18
2019-02-28T05:16:17.730Z,47.27
2019-02-28T05:19:02.374Z,47.57
2019-02-28T05:21:50.624Z,49.10
2019-02-28T05:24:34.997Z,47.83
2019-02-28T05:27:19.358Z,48.27
2019-02-28T05:30:02.988Z,44.77
2019-02-28T05:32:49.606Z,48.00
2019-02-28T05:35:33.093Z,48.90
2019-02-28T05:38:20.642Z,46.10
2019-02-28T05:41:03.982Z,46.63
2019-02-28T05:43:49.872Z,47.17
2019-02-28T05:46:34.640Z,45.90
2019-02-28T05:49:19.094Z,47.17
2019-02-28T05:54:50.289Z,48.23
2019-02-28T05:57:33.277Z,46.90
2019-02-28T06:00:18.849Z,48.50
2019-02-28T06:03:03.936Z,49.48
2019-02-28T06:05:48.052Z,50.20
2019-02-28T06:08:32.382Z,50.83
2019-02-28T06:13:49.611Z,51.37
2019-02-28T06:16:48.320Z,50.07
2019-02-28T06:19:34.196Z,51.30
2019-02-28T06:22:19.077Z,48.35
2019-02-28T06:25:03.852Z,52.23
2019-02-28T06:27:50.460Z,52.25
2019-02-28T06:30:33.810Z,51.30
2019-02-28T06:33:21.105Z,53.65
2019-02-28T06:36:04.658Z,52.70
2019-02-28T06:38:51.495Z,54.17
2019-02-28T06:41:39.989Z,53.87
2019-02-28T06:44:27.059Z,56.47
2019-02-28T06:47:11.309Z,54.67
2019-02-28T06:49:56.251Z,53.77
2019-02-28T06:52:40.162Z,55.90
2019-02-28T06:55:25.242Z,59.17
2019-02-28T06:58:08.932Z,59.73
2019-02-28T07:00:53.168Z,58.37
2019-02-28T07:03:38.791Z,61.43
2019-02-28T07:06:11.285Z,58.50
2019-02-28T07:08:55.146Z,59.27
2019-02-28T07:11:39.301Z,63.27
2019-02-28T07:14:22.938Z,63.97
2019-02-28T07:17:10.738Z,63.53
2019-02-28T07:19:54.832Z,62.63
2019-02-28T07:22:41.266Z,64.20
2019-02-28T07:28:30.057Z,64.97
2019-02-28T07:31:14.185Z,64.43
2019-02-28T07:33:58.255Z,60.77
2019-02-28T07:36:45.747Z,66.53
2019-02-28T07:39:29.904Z,63.23
2019-02-28T07:42:13.906Z,66.65
2019-02-28T07:44:58.976Z,65.83
2019-02-28T07:47:43.155Z,65.93
2019-02-28T07:50:27.406Z,64.97
2019-02-28T07:53:12.745Z,62.10
2019-02-28T07:55:58.451Z,60.67
2019-02-28T07:58:42.081Z,66.20
2019-02-28T08:01:28.547Z,65.50
2019-02-28T08:04:17.878Z,61.87
2019-02-28T08:07:00.726Z,62.17
2019-02-28T08:09:45.619Z,61.63
2019-02-28T08:12:31.375Z,62.85
2019-02-28T08:15:21.132Z,62.53
2019-02-28T08:17:50.905Z,62.50
2019-02-28T08:20:35.022Z,62.70
2019-02-28T08:23:19.952Z,61.03
2019-02-28T08:25:52.396Z,63.97
2019-02-28T08:28:39.018Z,63.57
2019-02-28T08:31:23.148Z,62.33
2019-02-28T08:34:10.223Z,62.43
2019-02-28T08:36:54.343Z,58.87
2019-02-28T08:39:41.198Z,55.43
2019-02-28T08:42:24.098Z,50.67
2019-02-28T08:45:10.777Z,50.93
2019-02-28T08:47:56.779Z,49.70
2019-02-28T08:50:29.229Z,51.80
2019-02-28T08:53:15.378Z,50.63
2019-02-28T08:55:57.902Z,48.27
2019-02-28T08:58:42.834Z,48.93
2019-02-28T09:01:27.427Z,46.03
2019-02-28T09:04:11.568Z,46.80
2019-02-28T09:06:55.547Z,46.77
2019-02-28T09:09:39.299Z,46.03
2019-02-28T09:12:24.014Z,48.33
2019-02-28T09:15:08.128Z,45.17
2019-02-28T09:17:51.885Z,46.77
2019-02-28T09:20:36.683Z,44.80
2019-02-28T09:23:20.140Z,42.40
2019-02-28T09:26:03.752Z,43.78
2019-02-28T09:28:48.291Z,43.17
2019-02-28T09:31:38.819Z,40.63
2019-02-28T09:34:18.831Z,39.47
2019-02-28T09:36:55.264Z,33.85
2019-02-28T09:39:51.206Z,32.85
2019-02-28T09:42:35.840Z,31.80
2019-02-28T09:45:20.088Z,31.13
2019-02-28T09:48:05.030Z,29.37
2019-02-28T09:50:48.848Z,29.50
2019-02-28T09:53:33.006Z,27.80
2019-02-28T09:56:17.272Z,28.57
2019-02-28T09:59:03.246Z,26.17
2019-02-28T10:01:35.993Z,27.00
2019-02-28T10:04:20.261Z,25.77
2019-02-28T10:07:04.145Z,23.50
2019-02-28T10:09:49.288Z,24.70
2019-02-28T10:12:33.915Z,25.03
2019-02-28T10:15:19.036Z,24.53
2019-02-28T10:18:04.245Z,24.07
2019-02-28T10:20:37.141Z,23.93
2019-02-28T10:23:22.208Z,22.33
2019-02-28T10:26:06.003Z,22.77
2019-02-28T10:28:50.745Z,21.35
2019-02-28T10:31:38.342Z,19.80
2019-02-28T10:34:23.453Z,19.93
2019-02-28T10:37:08.067Z,21.07
2019-02-28T10:39:52.683Z,19.77
2019-02-28T10:42:37.024Z,18.15
2019-02-28T10:45:22.333Z,19.80
2019-02-28T10:48:08.010Z,18.83
2019-02-28T10:50:51.258Z,19.70
2019-02-28T10:53:36.299Z,18.20
2019-02-28T10:56:21.220Z,18.30
2019-02-28T10:59:04.863Z,18.63
2019-02-28T11:01:49.107Z,18.75
2019-02-28T11:04:33.283Z,18.67
2019-02-28T11:07:17.296Z,19.10
2019-02-28T11:10:02.004Z,19.73
2019-02-28T11:12:45.816Z,16.85
2019-02-28T11:15:30.436Z,18.50
2019-02-28T11:18:14.557Z,18.45
2019-02-28T11:20:59.329Z,17.97
2019-02-28T11:23:46.515Z,17.30
2019-02-28T11:26:29.119Z,18.30
2019-02-28T11:29:12.820Z,18.20
2019-02-28T11:31:46.491Z,19.57
2019-02-28T11:34:30.824Z,18.67
2019-02-28T11:37:05.460Z,20.60
2019-02-28T11:40:02.079Z,20.57
2019-02-28T11:42:52.313Z,21.12
2019-02-28T11:45:40.762Z,20.97
2019-02-28T11:48:25.734Z,23.07
2019-02-28T11:51:14.568Z,20.10
2019-02-28T11:53:57.402Z,19.67
2019-02-28T11:56:41.520Z,20.40
2019-02-28T11:59:29.548Z,19.05
2019-02-28T12:02:14.089Z,19.00
2019-02-28T12:04:57.853Z,20.87
2019-02-28T12:07:42.719Z,19.87
2019-02-28T12:10:27.902Z,20.30
2019-02-28T12:13:12.470Z,20.70
2019-02-28T12:15:56.893Z,21.73
2019-02-28T12:18:41.004Z,20.70
2019-02-28T12:21:25.590Z,20.82
2019-02-28T12:24:09.558Z,20.87
2019-02-28T12:26:53.714Z,19.50
2019-02-28T12:29:37.507Z,20.87
2019-02-28T12:32:22.976Z,20.47
2019-02-28T12:35:08.215Z,20.00
2019-02-28T12:37:53.860Z,20.77
2019-02-28T12:40:38.121Z,19.33
2019-02-28T12:43:22.132Z,18.27
2019-02-28T12:46:08.365Z,17.77
2019-02-28T12:48:52.326Z,16.87
2019-02-28T12:51:39.719Z,16.43
2019-02-28T12:54:22.682Z,15.63
2019-02-28T12:57:09.322Z,17.70
2019-02-28T12:59:53.022Z,16.87
2019-02-28T13:02:39.661Z,17.30
2019-02-28T13:05:23.895Z,16.73
2019-02-28T13:08:07.789Z,17.03
2019-02-28T13:10:42.017Z,17.73
2019-02-28T13:13:28.816Z,17.60
2019-02-28T13:16:24.521Z,17.43
2019-02-28T13:19:09.062Z,17.37
2019-02-28T13:21:53.734Z,17.30
2019-02-28T13:24:42.410Z,18.43
2019-02-28T13:27:24.423Z,17.50
2019-02-28T13:30:11.851Z,16.12
2019-02-28T13:32:56.181Z,16.87
2019-02-28T13:35:45.173Z,16.23
2019-02-28T13:38:26.056Z,17.17
2019-02-28T13:41:11.555Z,16.00
2019-02-28T13:43:59.287Z,15.53
2019-02-28T13:46:41.675Z,16.47
2019-02-28T13:49:26.108Z,14.73
2019-02-28T13:52:19.088Z,16.40
2019-02-28T13:55:01.610Z,16.30
2019-02-28T13:57:47.502Z,17.05
2019-02-28T14:00:31.977Z,15.87
2019-02-28T14:03:17.092Z,15.50
2019-02-28T14:06:02.419Z,15.03
2019-02-28T14:08:47.769Z,15.97
2019-02-28T14:11:33.013Z,15.17
2019-02-28T14:14:06.500Z,14.10
2019-02-28T14:17:03.208Z,16.27
2019-02-28T14:19:47.768Z,15.53
2019-02-28T14:22:31.656Z,15.63
2019-02-28T14:25:15.697Z,15.43
2019-02-28T14:28:00.292Z,16.60
2019-02-28T14:30:46.040Z,16.40
2019-02-28T14:33:32.211Z,16.35
2019-02-28T14:36:15.439Z,16.33
2019-02-28T14:38:59.638Z,16.93
2019-02-28T14:41:44.633Z,15.83
2019-02-28T14:44:31.561Z,20.48
2019-02-28T14:47:15.510Z,16.97
2019-02-28T14:49:59.087Z,21.37
2019-02-28T14:52:43.829Z,17.10
2019-02-28T14:55:29.246Z,16.17
2019-02-28T14:58:14.095Z,16.10
2019-02-28T15:00:58.644Z,16.03
2019-02-28T15:03:42.745Z,16.33
2019-02-28T15:06:30.799Z,17.50
2019-02-28T15:09:16.182Z,17.10
2019-02-28T15:12:00.295Z,16.03
2019-02-28T15:14:45.862Z,17.27
2019-02-28T15:17:29.485Z,17.02
2019-02-28T15:20:14.536Z,17.77
2019-02-28T15:23:00.210Z,16.07
2019-02-28T15:25:32.558Z,15.93
2019-02-28T15:28:16.984Z,16.80
2019-02-28T15:31:01.564Z,16.52
2019-02-28T15:33:45.937Z,16.83
2019-02-28T15:36:30.244Z,15.53
2019-02-28T15:39:17.168Z,18.47
2019-02-28T15:42:00.516Z,20.17
2019-02-28T15:44:44.474Z,23.33
2019-02-28T15:47:29.086Z,22.62
2019-02-28T15:50:16.358Z,23.17
2019-02-28T15:53:00.153Z,24.80
2019-02-28T15:55:46.318Z,24.50
2019-02-28T15:58:19.053Z,25.80
2019-02-28T16:01:04.968Z,25.23
2019-02-28T16:03:51.279Z,26.97
2019-02-28T16:06:23.913Z,27.83
2019-02-28T16:09:09.139Z,25.63
2019-02-28T16:11:56.569Z,26.33
2019-02-28T16:14:41.399Z,25.40
2019-02-28T16:17:28.438Z,21.80
2019-02-28T16:20:12.757Z,22.93
2019-02-28T16:22:56.757Z,20.83
2019-02-28T16:25:40.924Z,20.27
2019-02-28T16:28:25.602Z,19.57
2019-02-28T16:31:09.955Z,19.67
2019-02-28T16:33:57.764Z,18.97
2019-02-28T16:36:40.166Z,19.63
2019-02-28T16:39:12.699Z,18.38
2019-02-28T16:42:11.565Z,18.87
2019-02-28T16:44:43.686Z,18.50
2019-02-28T16:47:27.943Z,18.80
2019-02-28T16:50:12.036Z,18.57
2019-02-28T16:52:55.860Z,22.93
2019-02-28T16:55:40.712Z,18.90
2019-02-28T16:58:24.720Z,17.77
2019-02-28T17:01:08.868Z,17.83
2019-02-28T17:03:55.378Z,17.20
2019-02-28T17:06:41.939Z,18.30
2019-02-28T17:18:49.461Z,18.47
2019-02-28T17:21:33.513Z,17.27
2019-02-28T17:24:18.189Z,17.73
2019-02-28T17:27:21.660Z,16.10
2019-02-28T17:36:27.535Z,16.02
2019-02-28T17:39:17.771Z,15.83
2019-02-28T17:42:08.318Z,15.13
2019-02-28T17:45:10.109Z,15.57
2019-02-28T17:48:19.524Z,14.47
2019-02-28T17:51:25.696Z,14.63
2019-02-28T17:54:17.315Z,15.73
2019-02-28T17:57:34.812Z,14.57
2019-02-28T18:00:30.118Z,14.70
2019-02-28T18:06:43.720Z,14.23
2019-02-28T18:10:02.494Z,15.08
2019-02-28T18:13:09.219Z,15.35
2019-02-28T18:16:14.057Z,15.73
2019-02-28T18:22:42.546Z,14.43
2019-02-28T18:25:48.625Z,15.32
2019-02-28T18:28:42.215Z,15.17
2019-02-28T18:31:28.565Z,15.00
2019-02-28T18:34:20.683Z,16.47
2019-02-28T18:37:20.730Z,15.53
2019-02-28T18:40:06.794Z,16.93
2019-02-28T18:42:53.536Z,14.18
2019-02-28T18:45:38.052Z,14.53
2019-02-28T18:51:07.591Z,15.87
2019-02-28T18:53:51.951Z,15.50
2019-02-28T18:56:38.013Z,16.17
2019-02-28T18:59:21.980Z,16.63
2019-02-28T19:02:07.185Z,16.40
2019-02-28T19:04:53.836Z,16.20
2019-02-28T19:07:37.973Z,16.20
2019-02-28T19:10:10.639Z,16.40
2019-02-28T19:12:57.786Z,17.13
2019-02-28T19:15:45.076Z,16.97
2019-02-28T19:18:28.647Z,16.53
2019-02-28T19:21:14.832Z,16.53
2019-02-28T19:24:00.948Z,14.77
2019-02-28T19:26:45.660Z,15.67
2019-02-28T19:29:30.213Z,16.82
2019-02-28T19:32:15.970Z,16.67
2019-02-28T19:35:00.737Z,15.43
2019-02-28T19:37:44.452Z,16.50
2019-02-28T19:40:28.568Z,17.15
2019-02-28T19:43:13.243Z,15.93
2019-02-28T19:45:57.541Z,16.97
2019-02-28T19:48:42.996Z,17.37
2019-02-28T19:51:27.775Z,17.13
2019-02-28T19:54:12.488Z,16.27
2019-02-28T19:56:58.079Z,17.32
2019-02-28T19:59:43.680Z,15.80
2019-02-28T20:02:27.561Z,16.37
2019-02-28T20:05:16.139Z,16.57
2019-02-28T20:08:00.444Z,16.33
2019-02-28T20:10:44.377Z,16.07
2019-02-28T20:13:28.627Z,16.93
2019-02-28T20:16:12.735Z,17.32
2019-02-28T20:18:57.940Z,16.57
2019-02-28T20:21:42.739Z,15.43
2019-02-28T20:24:26.646Z,15.07
2019-02-28T20:27:11.121Z,15.10
2019-02-28T20:32:31.532Z,15.30
2019-02-28T20:35:16.051Z,15.50
2019-02-28T20:37:59.883Z,15.67
2019-02-28T20:40:43.877Z,15.73
2019-02-28T20:43:28.268Z,15.98
2019-02-28T20:46:12.544Z,15.87
2019-02-28T20:48:57.180Z,15.93
2019-02-28T20:51:29.379Z,16.60
2019-02-28T20:54:14.248Z,17.13
2019-02-28T20:56:59.037Z,17.23
2019-02-28T20:59:43.592Z,17.37
2019-02-28T21:02:27.891Z,16.40
2019-02-28T21:05:12.143Z,16.10
2019-02-28T21:07:56.767Z,17.82
2019-02-28T21:10:41.454Z,16.13
2019-02-28T21:13:25.349Z,18.37
2019-02-28T21:16:09.659Z,16.20
2019-02-28T21:18:53.896Z,17.63
2019-02-28T21:21:38.274Z,17.43
2019-02-28T21:24:10.541Z,17.63
2019-02-28T21:26:54.954Z,19.37
2019-02-28T21:29:39.954Z,18.93
2019-02-28T21:32:25.542Z,18.50
2019-02-28T21:35:10.140Z,17.73
2019-02-28T21:37:54.276Z,18.12
2019-02-28T21:40:38.414Z,17.95
2019-02-28T21:43:22.747Z,17.47
2019-02-28T21:46:07.431Z,18.20
2019-02-28T21:48:52.237Z,18.80
2019-02-28T21:51:36.785Z,17.73
2019-02-28T21:54:21.053Z,16.13
2019-02-28T21:57:05.809Z,17.53
2019-02-28T21:59:49.431Z,17.13
2019-02-28T22:02:33.895Z,18.13
2019-02-28T22:05:19.080Z,17.97
2019-02-28T22:08:03.538Z,18.80
2019-02-28T22:10:49.550Z,18.10
2019-02-28T22:13:34.227Z,16.43
2019-02-28T22:16:18.034Z,17.73
2019-02-28T22:19:01.946Z,17.77
2019-02-28T22:21:34.219Z,16.83
2019-02-28T22:24:18.705Z,17.00
2019-02-28T22:27:02.894Z,16.50
2019-02-28T22:29:48.056Z,16.47
2019-02-28T22:32:37.904Z,16.00
2019-02-28T22:35:30.337Z,16.03
2019-02-28T22:38:20.819Z,16.13
2019-02-28T22:41:05.165Z,16.57
2019-02-28T22:43:49.856Z,15.23
2019-02-28T22:46:33.807Z,16.37
2019-02-28T22:49:18.358Z,17.60
2019-02-28T22:52:03.214Z,17.98
2019-02-28T22:54:46.952Z,17.53
2019-02-28T22:57:32.153Z,17.03
2019-02-28T23:03:34.170Z,16.47
2019-02-28T23:06:18.115Z,16.57
2019-02-28T23:09:01.927Z,16.17
2019-02-28T23:11:47.910Z,15.43
2019-02-28T23:14:31.711Z,17.20
2019-02-28T23:17:18.304Z,17.70
2019-02-28T23:20:02.133Z,15.73
2019-02-28T23:22:47.904Z,16.67
2019-02-28T23:25:32.178Z,16.10
2019-02-28T23:28:23.722Z,17.17
2019-02-28T23:31:15.657Z,16.33
2019-02-28T23:34:01.552Z,16.70
2019-02-28T23:36:46.404Z,16.43
2019-02-28T23:39:30.841Z,15.63
2019-02-28T23:42:15.146Z,15.57
2019-02-28T23:44:59.315Z,16.47
2019-02-28T23:47:43.168Z,14.73
2019-02-28T23:50:28.631Z,16.10
2019-02-28T23:53:12.342Z,13.83
2019-02-28T23:55:56.637Z,13.70
2019-02-28T23:58:40.196Z,14.10
